Time;durP1;ratioP1;P1;durP2;ratioP2;P2;SDS_P1;SDS_P2;PMS_P1;PMS_P2;Temp;Humidity;BMP_temperature;BMP_pressure;BME280_temperature;BME280_humidity;BME280_pressure;Samples;Min_cycle;Max_cycle;Signal;HPM_P1;HPM_P2
2021/07/11 00:01:00;;;;;;;57.05;31.17;;;;;;;15.90;88.59;101718.19;5038995;28;20017;-84
2021/07/11 00:03:45;;;;;;;57.75;31.67;;;;;;;15.92;88.39;101720.84;5039874;28;20033;-84
2021/07/11 00:06:11;;;;;;;58.78;34.08;;;;;;;15.94;88.39;101713.75;5034512;28;20050;-83
2021/07/11 00:08:56;;;;;;;54.80;31.48;;;;;;;15.98;88.45;101712.94;5025487;28;20515;-83
2021/07/11 00:11:30;;;;;;;58.92;31.55;;;;;;;15.98;88.40;101708.50;5025055;28;20101;-83
2021/07/11 00:14:20;;;;;;;61.65;33.65;;;;;;;16.00;88.32;101714.69;5018647;28;20030;-83
2021/07/11 00:16:48;;;;;;;64.15;34.50;;;;;;;16.01;88.63;101715.59;5022273;28;20483;-82
2021/07/11 00:19:34;;;;;;;58.08;32.95;;;;;;;16.01;88.94;101715.59;5025372;28;20067;-82
2021/07/11 00:22:01;;;;;;;67.88;35.88;;;;;;;16.01;88.96;101716.47;5026472;28;20025;-82
2021/07/11 00:24:50;;;;;;;62.92;33.92;;;;;;;16.02;88.69;101714.75;5021459;28;20021;-82
2021/07/11 00:27:18;;;;;;;63.95;34.97;;;;;;;16.02;88.72;101717.41;5022031;28;20037;-82
2021/07/11 00:29:50;;;;;;;59.67;32.72;;;;;;;16.06;88.47;101715.63;5025235;28;20475;-83
2021/07/11 00:32:18;;;;;;;61.30;33.67;;;;;;;16.08;88.15;101714.78;5025890;28;20099;-85
2021/07/11 00:34:44;;;;;;;63.65;35.65;;;;;;;16.10;88.27;101720.09;5023760;28;20029;-79
2021/07/11 00:37:10;;;;;;;72.35;36.63;;;;;;;16.10;88.36;101714.78;5024085;28;20063;-82
2021/07/11 00:39:56;;;;;;;56.13;32.83;;;;;;;16.11;88.53;101714.78;5024281;28;20045;-84
2021/07/11 00:42:43;;;;;;;68.50;35.95;;;;;;;16.12;88.68;101713.03;5024709;28;20312;-80
2021/07/11 00:45:32;;;;;;;70.93;36.63;;;;;;;16.11;89.37;101722.75;5026902;28;20109;-80
2021/07/11 00:47:57;;;;;;;75.53;37.35;;;;;;;16.10;90.01;101721.00;5025099;28;20578;-83
2021/07/11 00:50:23;;;;;;;76.38;39.15;;;;;;;16.07;90.07;101720.94;5029303;28;20103;-82
2021/07/11 00:52:49;;;;;;;76.53;37.83;;;;;;;16.07;89.98;101715.63;5027065;28;20083;-82
2021/07/11 00:55:15;;;;;;;75.82;38.63;;;;;;;16.04;90.14;101718.28;5025060;28;20044;-82
2021/07/11 00:57:51;;;;;;;76.43;39.13;;;;;;;16.05;90.35;101722.72;5027204;28;20021;-83
2021/07/11 01:00:43;;;;;;;69.53;36.05;;;;;;;16.06;89.73;101727.16;5024565;28;20056;-83
2021/07/11 01:03:26;;;;;;;65.57;35.22;;;;;;;16.09;89.24;101721.88;5026247;28;20037;-85
2021/07/11 01:06:15;;;;;;;61.45;32.63;;;;;;;16.11;88.93;101717.44;5023923;28;20025;-81
2021/07/11 01:09:07;;;;;;;58.97;31.08;;;;;;;16.15;88.63;101716.59;5041513;28;20066;-81
2021/07/11 01:12:12;;;;;;;56.00;33.33;;;;;;;16.14;88.74;101720.16;5041423;28;20115;-82
2021/07/11 01:15:00;;;;;;;68.85;35.30;;;;;;;16.12;89.07;101715.69;5041843;28;20391;-82
2021/07/11 01:17:30;;;;;;;65.65;36.95;;;;;;;16.12;88.63;101719.22;5040974;28;20045;-83
2021/07/11 01:21:04;;;;;;;;;;;;;;;;;;;;;
2021/07/11 01:24:06;;;;;;;54.70;31.02;;;;;;;16.19;88.09;101723.69;5045375;28;20035;-82
2021/07/11 01:26:50;;;;;;;54.92;30.45;;;;;;;16.19;87.81;101725.47;5041559;28;20029;-83
2021/07/11 01:29:43;;;;;;;58.83;31.20;;;;;;;16.18;87.71;101727.25;5041719;28;20071;-81
2021/07/11 01:32:57;;;;;;;56.70;33.80;;;;;;;16.19;87.71;101729.00;5042414;28;20471;-79
2021/07/11 01:35:34;;;;;;;62.42;33.35;;;;;;;16.19;88.23;101729.00;5040701;28;20043;-82
2021/07/11 01:38:12;;;;;;;58.67;32.28;;;;;;;16.19;88.56;101734.31;5038592;28;20025;-82
2021/07/11 01:40:42;;;;;;;65.22;35.00;;;;;;;16.19;88.29;101729.00;5025423;28;20051;-82
2021/07/11 01:43:25;;;;;;;67.88;34.88;;;;;;;16.18;89.42;101729.91;5040549;28;20044;-81
2021/07/11 01:46:30;;;;;;;71.97;35.10;;;;;;;16.15;89.87;101727.22;5041836;28;20029;-84
2021/07/11 01:49:38;;;;;;;66.95;34.08;;;;;;;16.15;89.76;101729.84;5042042;28;20037;-82
2021/07/11 01:52:04;;;;;;;62.78;32.90;;;;;;;16.14;89.08;101728.09;5041462;28;20037;-83
2021/07/11 01:55:09;;;;;;;70.15;35.53;;;;;;;16.19;89.10;101736.09;5043376;28;20108;-83
2021/07/11 01:57:49;;;;;;;69.60;34.35;;;;;;;16.21;89.73;101742.31;5039400;28;20033;-83
2021/07/11 02:00:18;;;;;;;67.90;34.78;;;;;;;16.19;89.55;101741.41;5044780;28;20029;-82
2021/07/11 02:03:34;;;;;;;;;;;;;;;;;;;;;
2021/07/11 02:06:10;;;;;;;;;;;;;;;;;;;;;
2021/07/11 02:08:47;;;;;;;;;;;;;;;;;;;;;
2021/07/11 02:11:44;;;;;;;56.40;32.08;;;;;;;16.18;87.80;101751.16;5035325;28;20049;-82
2021/07/11 02:14:50;;;;;;;57.10;30.95;;;;;;;16.19;87.74;101754.69;5031627;28;20035;-84
2021/07/11 02:17:42;;;;;;;56.65;31.33;;;;;;;16.17;87.87;101743.19;5042078;28;20533;-84
2021/07/11 02:21:02;;;;;;;52.55;30.95;;;;;;;16.14;87.48;101743.13;5031999;28;20032;-82
2021/07/11 02:23:49;;;;;;;54.05;31.30;;;;;;;16.12;87.10;101748.44;5039125;28;20475;-84
2021/07/11 02:26:54;;;;;;;56.40;31.65;;;;;;;16.09;87.44;101752.81;5042745;28;20025;-82
2021/07/11 02:29:42;;;;;;;60.47;32.85;;;;;;;16.05;87.79;101743.97;5043369;28;20604;-83
2021/07/11 02:32:31;;;;;;;52.05;29.63;;;;;;;16.04;88.35;101750.13;5043393;28;20067;-82
2021/07/11 02:35:17;;;;;;;65.15;35.90;;;;;;;16.00;89.50;101749.22;5037958;28;20101;-79
2021/07/11 02:38:10;;;;;;;75.85;38.63;;;;;;;15.96;89.53;101750.06;5045419;28;20812;-84
2021/07/11 02:40:55;;;;;;;74.30;38.03;;;;;;;15.95;89.71;101752.69;5044126;28;20531;-82
2021/07/11 02:43:48;;;;;;;71.72;38.05;;;;;;;15.95;89.48;101758.00;5039512;28;20040;-83
2021/07/11 02:46:34;;;;;;;77.82;38.13;;;;;;;15.94;89.44;101757.13;5039866;28;20043;-84
2021/07/11 02:49:37;;;;;;;74.88;38.88;;;;;;;15.95;89.75;101743.00;5040548;28;20043;-83
2021/07/11 02:52:16;;;;;;;63.65;34.70;;;;;;;15.98;89.15;101742.13;5041418;28;20589;-84
2021/07/11 02:54:51;;;;;;;71.50;38.42;;;;;;;15.96;89.28;101735.91;5023130;28;20475;-82
2021/07/11 02:57:35;;;;;;;;;;;;;;;;;;;;;
2021/07/11 03:00:13;;;;;;;;;;;;;;;15.98;89.08;101742.13;5039493;28;20037;-84
2021/07/11 03:03:05;;;;;;;67.55;32.40;;;;;;;15.99;89.12;101738.59;5039468;28;19921;-82
2021/07/11 03:05:41;;;;;;;;;;;;;;;;;;;;;
2021/07/11 03:08:23;;;;;;;66.93;32.70;;;;;;;15.95;89.19;101743.00;5035600;28;20051;-81
2021/07/11 03:11:40;;;;;;;;;;;;;;;;;;;;;
2021/07/11 03:14:13;;;;;;;;;;;;;;;;;;;;;
2021/07/11 03:17:10;;;;;;;67.22;35.25;;;;;;;15.96;89.13;101734.13;5037395;28;20045;-84
2021/07/11 03:19:54;;;;;;;66.32;35.30;;;;;;;15.95;89.12;101732.38;5040107;28;20107;-83
2021/07/11 03:23:01;;;;;;;63.13;37.05;;;;;;;15.95;89.09;101731.47;5042587;28;20025;-84
2021/07/11 03:25:31;;;;;;;64.50;34.03;;;;;;;15.96;89.05;101736.78;5038052;28;20074;-83
2021/07/11 03:28:00;;;;;;;69.43;35.97;;;;;;;15.94;89.39;101733.25;5038689;28;20406;-83
2021/07/11 03:30:49;;;;;;;68.70;35.75;;;;;;;15.94;89.85;101732.34;5038815;28;20044;-84
2021/07/11 03:33:25;;;;;;;62.08;33.08;;;;;;;15.92;89.68;101731.44;5040853;28;20025;-84
2021/07/11 03:36:02;;;;;;;60.45;33.58;;;;;;;15.90;89.08;101723.47;5036576;28;20711;-83
2021/07/11 03:38:41;;;;;;;54.97;31.23;;;;;;;15.90;89.01;101730.53;5040108;28;20079;-83
2021/07/11 03:41:11;;;;;;;53.38;30.40;;;;;;;15.89;88.93;101737.63;5038814;28;20025;-82
2021/07/11 03:43:51;;;;;;;;;;;;;;;;;;;;;
2021/07/11 03:46:34;;;;;;;;;;;;;;;;;;;;;
2021/07/11 03:49:40;;;;;;;61.40;31.75;;;;;;;15.90;89.08;101736.75;5021655;28;20040;-82
2021/07/11 03:52:13;;;;;;;49.38;28.50;;;;;;;15.91;88.68;101734.97;5038488;28;20390;-84
2021/07/11 03:54:40;;;;;;;50.65;28.65;;;;;;;15.91;88.94;101735.88;5020773;28;20041;-80
2021/07/11 03:57:16;;;;;;;53.22;28.65;;;;;;;15.92;89.15;101731.44;5035665;28;20056;-84
2021/07/11 03:59:58;;;;;;;50.30;28.63;;;;;;;15.95;89.34;101731.47;5036892;28;20112;-84
2021/07/11 04:02:53;;;;;;;48.42;26.73;;;;;;;15.96;88.92;101727.94;5039845;28;20119;-84
2021/07/11 04:05:24;;;;;;;45.30;27.48;;;;;;;15.99;88.18;101718.25;5039513;28;20035;-84
2021/07/11 04:08:16;;;;;;;39.55;25.25;;;;;;;16.02;87.76;101717.41;5036352;28;20668;-84
2021/07/11 04:10:52;;;;;;;44.25;25.63;;;;;;;16.01;87.96;101718.25;5026955;28;20514;-83
2021/07/11 04:13:27;;;;;;;43.20;26.00;;;;;;;16.00;88.06;101708.50;5044152;28;20044;-84
2021/07/11 04:16:23;;;;;;;41.88;26.05;;;;;;;16.00;88.24;101708.50;5038866;28;20057;-83
2021/07/11 04:19:11;;;;;;;36.97;24.60;;;;;;;16.01;87.10;101705.00;5041131;28;20131;-84
2021/07/11 04:22:11;;;;;;;39.53;24.70;;;;;;;15.99;87.63;101702.31;5038775;28;20036;-83
2021/07/11 04:25:00;;;;;;;45.53;26.65;;;;;;;16.00;87.97;101695.25;5039629;28;20029;-85
2021/07/11 04:27:33;;;;;;;41.20;26.48;;;;;;;15.98;88.34;101699.66;5037979;28;20458;-83
2021/07/11 04:30:19;;;;;;;47.97;26.67;;;;;;;15.94;88.07;101697.84;5044073;28;20036;-84
2021/07/11 04:32:45;;;;;;;52.95;29.35;;;;;;;15.92;88.41;101702.25;5041474;28;20039;-83
2021/07/11 04:35:11;;;;;;;48.05;29.10;;;;;;;15.87;88.75;101696.00;5043206;28;20479;-82
2021/07/11 04:37:39;;;;;;;50.65;27.52;;;;;;;15.80;89.11;101695.97;5043300;28;20427;-83
2021/07/11 04:40:25;;;;;;;47.33;26.77;;;;;;;15.74;89.14;101693.22;5041153;28;20063;-84
2021/07/11 04:43:17;;;;;;;48.30;27.63;;;;;;;15.67;89.24;101694.94;5041996;28;20045;-83
2021/07/11 04:46:08;;;;;;;59.33;30.85;;;;;;;15.67;89.45;101686.09;5040889;28;20387;-85
2021/07/11 04:49:06;;;;;;;59.95;31.73;;;;;;;15.69;89.65;101681.69;5041958;28;20056;-84
2021/07/11 04:51:52;;;;;;;56.67;31.60;;;;;;;15.71;90.08;101685.25;5021197;28;20045;-84
2021/07/11 04:54:23;;;;;;;61.03;31.52;;;;;;;15.71;89.73;101685.25;5040208;28;20514;-84
2021/07/11 04:57:26;;;;;;;;;;;;;;;;;;;;;
2021/07/11 05:00:22;;;;;;;56.33;31.13;;;;;;;15.77;89.13;101695.03;5035185;28;20040;-85
2021/07/11 05:03:22;;;;;;;54.00;29.27;;;;;;;15.77;88.66;101690.59;5036398;28;20049;-82
2021/07/11 05:06:10;;;;;;;48.67;28.15;;;;;;;15.78;88.39;101687.06;5039574;28;20083;-83
2021/07/11 05:08:35;;;;;;;56.10;29.50;;;;;;;15.77;88.58;101690.59;5038084;28;20041;-84
2021/07/11 05:11:06;;;;;;;56.35;30.20;;;;;;;15.79;88.85;101696.81;5046052;28;20466;-80
2021/07/11 05:13:59;;;;;;;54.53;30.77;;;;;;;15.83;89.11;101698.66;5042515;28;20041;-83
2021/07/11 05:16:25;;;;;;;53.03;29.87;;;;;;;15.91;88.79;101716.41;5037538;28;20594;-83
2021/07/11 05:19:10;;;;;;;58.70;32.38;;;;;;;15.99;89.12;101718.25;5038214;28;20080;-85
2021/07/11 05:21:41;;;;;;;45.42;26.52;;;;;;;16.09;89.16;101721.88;5040218;28;20064;-83
2021/07/11 05:24:18;;;;;;;46.25;27.38;;;;;;;16.19;88.43;101715.72;5032986;28;20483;-84
2021/07/11 05:27:05;;;;;;;52.80;29.75;;;;;;;16.26;88.17;101723.75;5037229;28;20032;-83
2021/07/11 05:29:43;;;;;;;51.47;28.73;;;;;;;16.32;87.93;101722.03;5038327;28;20575;-85
2021/07/11 05:32:51;;;;;;;51.15;28.95;;;;;;;16.37;87.45;101723.81;5041828;28;20041;-84
2021/07/11 05:36:00;;;;;;;;;;;;;;;;;;;;;
2021/07/11 05:38:46;;;;;;;47.00;27.77;;;;;;;16.48;87.60;101723.03;5043415;28;20128;-84
2021/07/11 05:41:31;;;;;;;51.40;29.63;;;;;;;16.55;87.68;101723.03;5043779;28;20017;-82
2021/07/11 05:44:17;;;;;;;59.15;31.70;;;;;;;16.60;87.68;101726.63;5047713;28;20076;-83
2021/07/11 05:47:35;;;;;;;;;;;;;;;;;;;;;
2021/07/11 05:50:23;;;;;;;58.13;31.23;;;;;;;16.64;87.50;101731.06;5041821;28;20037;-82
2021/07/11 05:53:02;;;;;;;;;;;;;;;;;;;;;
2021/07/11 05:56:10;;;;;;;57.78;31.98;;;;;;;16.65;88.27;101736.41;5044248;28;20067;-84
2021/07/11 05:58:36;;;;;;;58.10;33.38;;;;;;;16.63;88.12;101735.50;5045185;28;20325;-83
2021/07/11 06:05:23;;;;;;;;;;;;;;;;;;;;;
2021/07/11 06:40:17;;;;;;;57.80;32.00;;;;;;;16.40;88.90;101785.84;4841971;29;21072;-84
2021/07/11 06:42:45;;;;;;;58.33;31.00;;;;;;;16.43;89.37;101785.84;4842932;29;20068;-85
2021/07/11 06:45:20;;;;;;;56.75;31.13;;;;;;;16.44;89.04;101789.38;4889275;29;20476;-86
2021/07/11 06:50:45;;;;;;;56.97;33.10;;;;;;;16.41;89.13;101794.69;5018536;28;20073;-89
2021/07/11 06:53:38;;;;;;;62.97;33.20;;;;;;;16.43;88.96;101790.28;5021046;28;20083;-88
2021/07/11 07:04:01;;;;;;;53.60;31.83;;;;;;;16.48;88.84;101807.13;4965155;28;20370;-83
2021/07/11 07:06:49;;;;;;;48.15;31.02;;;;;;;16.51;88.38;101812.50;4980649;28;20121;-82
2021/07/11 07:09:19;;;;;;;56.17;33.13;;;;;;;16.55;88.76;101821.34;5035136;28;20041;-87
2021/07/11 07:11:53;;;;;;;51.70;31.73;;;;;;;16.57;88.71;101815.19;5036120;28;20461;-86
2021/07/11 07:14:24;;;;;;;55.35;32.60;;;;;;;16.58;89.03;101813.44;5041120;28;20017;-82
2021/07/11 07:16:49;;;;;;;51.22;31.85;;;;;;;16.60;88.89;101816.97;5044058;28;20036;-81
2021/07/11 07:19:15;;;;;;;52.75;32.30;;;;;;;16.63;88.58;101820.56;5043577;28;20036;-87
2021/07/11 07:21:41;;;;;;;48.75;30.65;;;;;;;16.64;88.10;101824.09;5038858;28;20441;-85
2021/07/11 07:24:32;;;;;;;52.13;32.90;;;;;;;16.65;88.00;101820.56;5039231;28;20033;-85
2021/07/11 07:27:27;;;;;;;54.20;32.53;;;;;;;16.67;88.12;101822.34;5018205;28;20079;-89
2021/07/11 07:33:50;;;;;;;64.90;37.58;;;;;;;16.73;88.79;101818.84;4995232;28;20476;-83
2021/07/11 07:36:16;;;;;;;67.53;39.17;;;;;;;16.73;88.67;101821.50;5037831;28;20025;-82
2021/07/11 07:38:42;;;;;;;69.43;40.05;;;;;;;16.76;88.74;101810.88;5023262;28;20037;-80
2021/07/11 07:41:29;;;;;;;67.32;38.58;;;;;;;16.76;88.51;101818.84;5026440;28;20102;-82
2021/07/11 07:43:55;;;;;;;66.13;39.63;;;;;;;16.77;88.54;101820.63;5037297;28;20726;-83
2021/07/11 07:46:41;;;;;;;58.53;36.05;;;;;;;16.79;88.74;101810.00;5047772;28;20048;-88
2021/07/11 07:49:09;;;;;;;69.55;39.90;;;;;;;16.77;88.32;101814.44;5056419;28;20561;-80
2021/07/11 07:52:24;;;;;;;74.60;42.22;;;;;;;16.73;88.39;101824.16;5050955;28;20288;-84
2021/07/11 07:55:20;;;;;;;67.95;40.50;;;;;;;16.70;88.31;101821.50;5039183;28;20037;-82
2021/07/11 07:58:10;;;;;;;70.85;41.75;;;;;;;16.72;88.67;101826.81;5048038;28;20033;-84
2021/07/11 08:00:38;;;;;;;63.10;36.50;;;;;;;16.79;88.59;101831.28;5042125;28;20051;-84
2021/07/11 08:03:56;;;;;;;70.00;39.10;;;;;;;16.78;88.70;101835.72;5050576;28;20564;-85
2021/07/11 08:06:42;;;;;;;74.63;42.67;;;;;;;16.76;88.97;101832.13;5043702;28;20076;-83
2021/07/11 08:09:11;;;;;;;78.53;43.38;;;;;;;16.78;89.28;101838.38;5042948;28;20116;-85
2021/07/11 08:11:39;;;;;;;81.30;43.10;;;;;;;16.80;89.09;101831.28;5044353;28;20032;-83
2021/07/11 08:14:07;;;;;;;68.38;40.33;;;;;;;16.85;89.09;101828.66;5036660;28;20025;-83
2021/07/11 08:17:02;;;;;;;;;;;;;;;;;;;;;
2021/07/11 08:20:20;;;;;;;63.13;38.55;;;;;;;17.01;88.65;101827.00;5043004;28;20057;-84
2021/07/11 08:23:08;;;;;;;;;;;;;;;;;;;;;
2021/07/11 08:26:10;;;;;;;;;;;;;;;;;;;;;
2021/07/11 08:52:19;;;;;;;68.25;40.05;;;;;;;17.64;87.88;101834.41;4932476;29;20086;-82
2021/07/11 08:56:20;;;;;;;;;;;;;;;;;;;;;
2021/07/11 08:58:58;;;;;;;60.90;36.00;;;;;;;18.31;85.82;101838.09;4934064;28;20161;-83
2021/07/11 09:02:16;;;;;;;60.33;37.45;;;;;;;18.56;84.42;101832.75;4955246;28;20027;-85
2021/07/11 09:12:31;;;;;;;;;;;;;;;19.21;81.73;101826.41;4933383;29;20427;-82
2021/07/11 09:15:45;;;;;;;45.40;28.38;;;;;;;19.45;78.84;101819.22;4937663;28;19957;-86
2021/07/11 09:19:01;;;;;;;44.55;29.15;;;;;;;19.90;79.76;101820.75;4972477;28;20037;-85
2021/07/11 09:22:13;;;;;;;35.88;24.85;;;;;;;20.16;76.83;101825.94;5027518;28;20056;-86
2021/07/11 09:29:17;;;;;;;30.63;22.40;;;;;;;20.68;77.08;101832.63;4980504;28;20494;-83
2021/07/11 09:32:05;;;;;;;29.50;20.60;;;;;;;21.66;70.57;101829.75;4952171;28;20043;-84
2021/07/11 09:35:04;;;;;;;25.98;19.65;;;;;;;22.09;69.27;101820.19;5031874;28;20036;-86
2021/07/11 09:41:47;;;;;;;27.48;18.73;;;;;;;22.47;68.11;101818.69;5020056;28;20147;-82
2021/07/11 09:45:04;;;;;;;23.75;17.70;;;;;;;22.24;69.93;101828.84;5034779;28;20053;-84
2021/07/11 09:51:59;;;;;;;19.75;16.10;;;;;;;22.09;68.41;101821.06;5023878;28;20561;-83
2021/07/11 09:55:23;;;;;;;;;;;;;;;;;;;;;
2021/07/11 10:02:09;;;;;;;;;;;;;;;;;;;;;
2021/07/11 10:05:34;;;;;;;;;;;;;;;;;;;;;
2021/07/11 10:13:03;;;;;;;;;;;;;;;;;;;;;
2021/07/11 10:38:13;;;;;;;16.33;12.98;;;;;;;25.37;55.79;101805.69;4790723;29;20407;-84
2021/07/11 10:45:42;;;;;;;;;;;;;;;;;;;;;
2021/07/11 10:49:35;;;;;;;;;;;;;;;;;;;;;
2021/07/11 10:56:36;;;;;;;;;;;;;;;;;;;;;
2021/07/11 11:00:07;;;;;;;;;;;;;;;;;;;;;
2021/07/11 11:04:20;;;;;;;17.10;14.02;;;;;;;25.90;52.65;101802.25;4749121;30;20074;-84
2021/07/11 11:11:02;;;;;;;;;;;;;;;;;;;;;
2021/07/11 11:25:36;;;;;;;;;;;;;;;;;;;;;
2021/07/11 11:49:54;;;;;;;27.15;19.42;;;;;;;20.33;70.78;101815.09;4805877;29;20053;-85
2021/07/11 11:52:20;;;;;;;31.90;23.38;;;;;;;20.11;71.41;101828.63;4814123;29;20034;-79
2021/07/11 11:54:48;;;;;;;36.55;24.02;;;;;;;19.74;78.43;101820.84;4855532;29;20029;-80
2021/07/11 11:57:14;;;;;;;39.38;26.48;;;;;;;19.59;79.82;101820.91;5017944;28;20037;-81
2021/07/11 12:00:27;;;;;;;;;;;;;;;;;;;;;
2021/07/11 12:03:15;;;;;;;36.28;25.90;;;;;;;19.74;78.38;101819.94;5012119;28;20522;-81
2021/07/11 12:05:50;;;;;;;33.20;24.40;;;;;;;19.95;78.47;101819.81;5030351;28;20034;-81
2021/07/11 12:11:40;;;;;;;36.00;26.20;;;;;;;20.32;80.06;101824.91;5032923;28;20487;-84
2021/07/11 12:15:24;;;;;;;;;;;;;;;;;;;;;
2021/07/11 12:17:55;;;;;;;24.52;19.92;;;;;;;19.74;76.13;101820.84;5035145;28;20093;-82
2021/07/11 12:20:55;;;;;;;23.48;17.45;;;;;;;19.65;74.02;101820.88;5045545;28;20116;-82
2021/07/11 12:23:38;;;;;;;23.52;17.10;;;;;;;20.15;74.72;101814.34;5043616;28;20044;-84
2021/07/11 12:26:09;;;;;;;23.80;17.10;;;;;;;21.59;75.30;101818.22;5049425;28;20405;-83
2021/07/11 12:29:36;;;;;;;18.20;13.70;;;;;;;22.43;66.36;101803.56;5051515;28;20067;-82
2021/07/11 12:36:25;;;;;;;18.77;14.00;;;;;;;22.48;66.13;101807.94;5002028;28;20037;-83
2021/07/11 12:39:39;;;;;;;19.67;14.88;;;;;;;22.19;67.03;101817.34;5037795;28;20036;-82
2021/07/11 12:46:07;;;;;;;18.65;14.23;;;;;;;21.68;66.97;101812.75;4937704;29;20524;-83
2021/07/11 12:49:33;;;;;;;;;;;;;;;;;;;;;
2021/07/11 12:52:57;;;;;;;17.85;13.95;;;;;;;21.59;68.56;101807.50;4895377;29;20499;-83
2021/07/11 13:06:36;;;;;;;13.82;10.65;;;;;;;22.48;61.33;101789.16;4895071;28;20453;-81
2021/07/11 13:09:18;;;;;;;10.30;8.52;;;;;;;23.56;60.80;101796.84;5002832;28;20109;-85
2021/07/11 13:16:13;;;;;;;10.10;8.27;;;;;;;24.56;54.71;101786.34;5052815;28;20064;-84
2021/07/11 13:25:45;;;;;;;;;;;;;;;;;;;;;
2021/07/11 13:36:10;;;;;;;7.15;5.35;;;;;;;22.45;61.52;101783.84;4999674;28;20033;-84
2021/07/11 13:42:06;;;;;;;5.53;4.70;;;;;;;22.48;60.49;101783.78;5029440;28;20119;-84
2021/07/11 13:44:31;;;;;;;6.78;5.72;;;;;;;22.70;59.50;101769.97;5049383;28;20021;-81
2021/07/11 13:55:29;;;;;;;;;;;;;;;;;;;;;
2021/07/11 14:02:52;;;;;;;4.57;3.75;;;;;;;23.64;55.21;101767.13;4815931;29;20026;-82
2021/07/11 14:06:13;;;;;;;5.75;3.20;;;;;;;23.92;55.98;101763.81;4771263;30;20039;-83
2021/07/11 14:16:17;;;;;;;3.78;3.20;;;;;;;24.49;54.82;101752.47;4867118;29;20052;-83
2021/07/11 14:19:40;;;;;;;6.35;3.95;;;;;;;25.05;50.71;101753.63;4882014;29;20027;-83
2021/07/11 14:22:40;;;;;;;4.03;3.20;;;;;;;25.33;47.99;101756.41;4952890;28;20034;-82
2021/07/11 14:26:13;;;;;;;4.22;3.58;;;;;;;25.66;48.08;101758.06;4967079;28;20035;-84
2021/07/11 14:36:44;;;;;;;4.50;3.35;;;;;;;23.93;53.75;101760.19;5019434;28;20394;-83
2021/07/11 14:43:28;;;;;;;;;;;;;;;;;;;;;
2021/07/11 14:46:53;;;;;;;16.25;13.10;;;;;;;23.43;57.31;101765.81;5045934;28;20065;-84
2021/07/11 14:49:45;;;;;;;;;;;;;;;;;;;;;
2021/07/11 14:52:51;;;;;;;18.95;14.68;;;;;;;22.33;63.54;101762.59;5008635;28;20405;-82
2021/07/11 14:56:00;;;;;;;18.02;14.70;;;;;;;22.17;63.10;101762.84;4998456;28;20117;-84
2021/07/11 14:59:20;;;;;;;20.75;16.77;;;;;;;22.15;65.16;101755.75;5003712;28;20060;-86
2021/07/11 15:02:12;;;;;;;;;;;;;;;;;;;;;
2021/07/11 15:04:48;;;;;;;21.63;16.73;;;;;;;21.75;66.11;101762.63;5048714;28;20047;-83
2021/07/11 15:07:36;;;;;;;20.45;16.42;;;;;;;21.58;66.57;101757.53;5046147;28;20033;-84
2021/07/11 15:10:29;;;;;;;20.65;16.70;;;;;;;21.36;65.57;101760.47;5045936;28;20037;-80
2021/07/11 15:13:29;;;;;;;21.70;18.23;;;;;;;21.27;67.22;101762.41;5051492;28;20046;-84
2021/07/11 15:16:49;;;;;;;22.40;17.63;;;;;;;21.65;66.74;101752.97;5051912;28;20041;-83
2021/07/11 15:19:44;;;;;;;21.83;16.88;;;;;;;22.18;65.56;101753.91;5053388;28;20131;-87
2021/07/11 15:23:07;;;;;;;22.17;17.48;;;;;;;22.71;62.65;101743.13;5050939;28;20048;-85
2021/07/11 15:25:56;;;;;;;23.20;16.10;;;;;;;22.93;63.38;101747.19;5047681;28;20462;-85
2021/07/11 15:29:05;;;;;;;18.27;15.30;;;;;;;23.17;61.48;101746.69;5048761;28;20139;-84
2021/07/11 15:34:35;;;;;;;17.38;14.15;;;;;;;23.13;61.84;101738.72;5045782;28;20396;-78
2021/07/11 15:37:00;;;;;;;16.88;12.70;;;;;;;23.11;59.63;101727.97;5046562;28;20017;-80
2021/07/11 15:39:26;;;;;;;16.45;13.05;;;;;;;23.10;60.94;101723.56;5049840;28;20443;-78
2021/07/11 15:41:51;;;;;;;17.33;13.73;;;;;;;22.93;58.47;101723.03;5050480;28;20024;-79
2021/07/11 15:44:16;;;;;;;16.90;12.63;;;;;;;22.92;60.06;101723.94;5047803;28;20376;-78
2021/07/11 15:46:42;;;;;;;17.38;13.85;;;;;;;22.76;61.12;101713.50;5049874;28;20025;-76
2021/07/11 15:49:07;;;;;;;19.83;14.93;;;;;;;22.73;61.52;101719.84;5050693;28;20025;-77
2021/07/11 15:51:33;;;;;;;16.55;12.65;;;;;;;22.74;60.60;101710.84;5048735;28;20426;-76
2021/07/11 15:53:58;;;;;;;14.98;12.35;;;;;;;22.74;61.49;101716.22;5046297;28;20025;-78
2021/07/11 15:56:24;;;;;;;17.38;12.82;;;;;;;22.62;60.43;101715.59;5048016;28;20051;-82
2021/07/11 15:58:49;;;;;;;17.05;13.38;;;;;;;22.40;61.04;101716.00;5047418;28;20052;-81
2021/07/11 16:01:15;;;;;;;15.43;12.10;;;;;;;22.40;60.99;101710.66;5048145;28;20325;-78
2021/07/11 16:03:46;;;;;;;13.95;11.98;;;;;;;22.38;62.13;101705.31;5044046;28;20111;-80
2021/07/11 16:06:11;;;;;;;19.52;14.75;;;;;;;22.48;60.24;101708.69;5030839;28;20017;-82
2021/07/11 16:08:37;;;;;;;16.25;12.43;;;;;;;22.68;60.99;101699.34;5040543;28;20036;-80
2021/07/11 16:11:06;;;;;;;14.68;12.65;;;;;;;22.84;59.91;101699.94;5042462;28;20080;-79
2021/07/11 16:13:32;;;;;;;13.05;11.27;;;;;;;22.85;60.16;101702.56;5027242;28;20049;-85
2021/07/11 16:16:01;;;;;;;13.65;9.85;;;;;;;22.86;58.96;101696.31;5044266;28;20505;-82
2021/07/11 16:21:46;;;;;;;8.05;6.22;;;;;;;23.09;57.13;101689.56;5040204;28;20120;-83
2021/07/11 16:24:54;;;;;;;6.95;5.35;;;;;;;23.12;56.96;101689.47;5046818;28;20120;-87
2021/07/11 16:28:10;;;;;;;7.53;6.60;;;;;;;23.15;59.02;101688.56;4971681;28;20042;-83
2021/07/11 16:30:58;;;;;;;8.38;4.95;;;;;;;23.38;58.31;101686.22;4968029;28;20049;-86
2021/07/11 16:33:53;;;;;;;5.72;5.05;;;;;;;23.49;56.30;101691.34;5043270;28;20064;-85
2021/07/11 16:40:32;;;;;;;6.65;5.18;;;;;;;23.31;55.33;101689.09;5047948;28;20131;-84
2021/07/11 16:43:31;;;;;;;6.35;4.95;;;;;;;23.22;55.54;101683.03;5043273;28;20049;-87
2021/07/11 16:53:48;;;;;;;5.97;4.63;;;;;;;22.89;55.05;101682.81;5046078;28;20041;-83
2021/07/11 16:56:38;;;;;;;6.70;4.32;;;;;;;22.70;56.53;101681.44;5029436;28;20533;-84
2021/07/11 16:59:34;;;;;;;5.00;4.30;;;;;;;22.48;56.80;101681.00;5037752;28;21414;-87
2021/07/11 17:01:59;;;;;;;4.55;3.53;;;;;;;22.27;57.26;101690.28;5045886;28;20033;-85
2021/07/11 17:04:33;;;;;;;3.25;2.67;;;;;;;22.39;57.19;101682.06;5045956;28;20502;-84
2021/07/11 17:06:59;;;;;;;4.25;3.45;;;;;;;22.30;56.72;101671.47;5047270;28;20499;-77
2021/07/11 17:09:24;;;;;;;11.23;8.25;;;;;;;22.14;59.34;101674.44;5046841;28;20037;-75
2021/07/11 17:11:50;;;;;;;11.68;10.43;;;;;;;22.13;60.91;101674.47;5036568;28;20450;-77
2021/07/11 17:14:15;;;;;;;14.57;13.07;;;;;;;21.96;62.16;101677.44;5029981;28;20030;-75
2021/07/11 17:16:41;;;;;;;17.80;12.80;;;;;;;21.92;63.38;101679.31;5030191;28;20021;-77
2021/07/11 17:19:06;;;;;;;16.05;13.48;;;;;;;21.89;62.58;101674.00;5031800;28;20083;-76
2021/07/11 17:21:32;;;;;;;19.80;13.80;;;;;;;21.76;63.91;101681.38;5030232;28;20030;-76
2021/07/11 17:23:57;;;;;;;15.15;12.68;;;;;;;21.69;64.81;101679.69;5027119;28;20112;-76
2021/07/11 17:26:23;;;;;;;20.88;14.98;;;;;;;21.65;62.95;101677.97;5030537;28;20109;-75
2021/07/11 17:28:50;;;;;;;18.00;13.43;;;;;;;21.53;63.81;101669.22;5031413;28;20056;-78
2021/07/11 17:31:15;;;;;;;21.67;12.52;;;;;;;21.50;64.28;101663.91;5034671;28;20518;-76
2021/07/11 17:33:41;;;;;;;15.00;12.35;;;;;;;21.44;64.98;101677.38;5028090;28;20025;-76
2021/07/11 17:36:06;;;;;;;17.63;13.02;;;;;;;21.37;64.80;101683.72;5025967;28;20487;-75
2021/07/11 17:38:32;;;;;;;16.35;12.60;;;;;;;21.29;65.49;101685.63;5026090;28;20037;-76
2021/07/11 17:40:58;;;;;;;17.00;13.38;;;;;;;21.17;64.84;101687.56;5024019;28;20033;-76
2021/07/11 17:43:24;;;;;;;16.80;13.15;;;;;;;20.95;65.91;101696.81;5019369;28;20044;-77
2021/07/11 17:45:49;;;;;;;17.13;12.35;;;;;;;20.88;65.57;101699.56;5027753;28;20025;-77
2021/07/11 17:48:15;;;;;;;18.50;12.95;;;;;;;20.74;65.89;101696.19;5023683;28;20056;-77
2021/07/11 17:50:41;;;;;;;15.18;13.43;;;;;;;20.67;66.41;101697.09;5026241;28;20705;-78
2021/07/11 17:53:06;;;;;;;15.75;12.90;;;;;;;20.51;67.35;101696.41;5025780;28;20026;-78